Time;durP1;ratioP1;P1;durP2;ratioP2;P2;SDS_P1;SDS_P2;PMS_P1;PMS_P2;Temp;Humidity;BMP_temperature;BMP_pressure;BME280_temperature;BME280_humidity;BME280_pressure;Samples;Min_cycle;Max_cycle;Signal;HPM_P1;HPM_P2
2023/04/26 00:00:16;;;;;;;6.17;2.70;;;;;;;13.57;75.34;100030.41;5049478;28;20271;-74
2023/04/26 00:02:42;;;;;;;6.03;2.50;;;;;;;13.57;75.38;100027.75;5037660;28;20160;-74
2023/04/26 00:05:07;;;;;;;5.70;2.70;;;;;;;13.54;75.41;100030.47;5037424;28;20099;-74
2023/04/26 00:07:34;;;;;;;5.53;2.42;;;;;;;13.56;75.37;100033.94;5037716;28;20029;-75
2023/04/26 00:10:00;;;;;;;8.20;2.50;;;;;;;13.58;75.28;100033.03;5048782;28;20106;-75
2023/04/26 00:12:25;;;;;;;6.97;3.00;;;;;;;13.58;75.63;100024.19;5049732;28;20025;-74
2023/04/26 00:14:51;;;;;;;7.93;2.55;;;;;;;13.59;75.33;100031.22;5057217;28;20029;-74
2023/04/26 00:17:17;;;;;;;6.53;2.40;;;;;;;13.59;75.40;100028.59;5057422;28;20029;-74
2023/04/26 00:19:42;;;;;;;6.63;2.57;;;;;;;13.60;75.45;100030.31;5044205;28;20021;-74
2023/04/26 00:22:07;;;;;;;6.32;2.20;;;;;;;13.62;75.41;100033.81;5035642;28;20029;-74
2023/04/26 00:24:33;;;;;;;5.17;2.40;;;;;;;13.64;75.56;100030.25;5037768;28;20041;-75
2023/04/26 00:27:00;;;;;;;5.90;2.50;;;;;;;13.69;75.20;100034.56;5056812;28;20055;-74
2023/04/26 00:29:26;;;;;;;5.97;2.42;;;;;;;13.71;75.03;100038.94;5039003;28;20117;-75
2023/04/26 00:31:51;;;;;;;6.15;2.10;;;;;;;13.71;75.07;100020.41;5037684;28;20061;-74
2023/04/26 00:34:17;;;;;;;6.73;2.57;;;;;;;13.71;75.06;100011.59;5037080;28;20052;-74
2023/04/26 00:36:42;;;;;;;6.50;2.57;;;;;;;13.71;75.17;100015.13;5019448;28;20025;-74
2023/04/26 00:39:08;;;;;;;6.17;2.80;;;;;;;13.71;75.02;100015.13;5019279;28;20083;-74
2023/04/26 00:41:34;;;;;;;5.85;2.70;;;;;;;13.71;75.19;100004.53;5044071;28;20033;-74
2023/04/26 00:43:59;;;;;;;7.28;2.45;;;;;;;13.72;75.24;100011.56;5035671;28;20504;-74
2023/04/26 00:46:27;;;;;;;8.20;3.10;;;;;;;13.73;75.25;100010.66;5036851;28;20034;-74
2023/04/26 00:48:53;;;;;;;8.90;2.88;;;;;;;13.75;75.03;100006.19;5036847;28;20036;-74
2023/04/26 00:51:19;;;;;;;6.37;2.40;;;;;;;13.76;75.10;100007.09;5037312;28;20385;-74
2023/04/26 00:53:45;;;;;;;7.70;2.90;;;;;;;13.75;75.18;100003.56;5036843;28;20308;-74
2023/04/26 00:56:11;;;;;;;5.65;2.47;;;;;;;13.75;75.10;100005.34;5036686;28;20021;-74
2023/04/26 00:58:37;;;;;;;6.05;2.65;;;;;;;13.74;75.14;100007.09;5042428;28;20029;-74
2023/04/26 01:01:02;;;;;;;7.18;2.60;;;;;;;13.74;75.08;100014.16;5042858;28;21474;-74
2023/04/26 01:03:29;;;;;;;5.90;2.67;;;;;;;13.72;75.19;100003.63;5036465;28;20034;-74
2023/04/26 01:05:54;;;;;;;7.13;2.95;;;;;;;13.74;74.98;100006.22;5050926;28;20029;-74
2023/04/26 01:08:22;;;;;;;7.27;2.70;;;;;;;13.76;74.97;100005.31;5038641;28;20063;-74
2023/04/26 01:10:48;;;;;;;6.53;2.72;;;;;;;13.77;75.10;100003.53;5043829;28;20021;-74
2023/04/26 01:13:14;;;;;;;7.53;2.97;;;;;;;13.80;75.24;99999.94;5036591;28;20037;-74
2023/04/26 01:15:45;;;;;;;9.38;3.50;;;;;;;13.80;74.99;99994.63;5036662;28;20394;-74
2023/04/26 01:18:10;;;;;;;7.37;4.03;;;;;;;13.82;75.27;99999.00;5036724;28;20033;-74
2023/04/26 01:20:36;;;;;;;10.20;4.05;;;;;;;13.80;75.31;99999.94;5061038;28;20085;-74
2023/04/26 01:23:02;;;;;;;7.80;3.72;;;;;;;13.78;75.33;99987.59;5036747;28;20123;-74
2023/04/26 01:25:28;;;;;;;6.67;3.33;;;;;;;13.78;75.49;99995.53;5018590;28;20029;-74
2023/04/26 01:27:53;;;;;;;7.43;4.28;;;;;;;13.80;75.35;99999.94;5041697;28;20641;-74
2023/04/26 01:30:19;;;;;;;9.90;3.90;;;;;;;13.80;75.33;99999.94;5037308;28;20474;-74
2023/04/26 01:32:44;;;;;;;7.80;3.83;;;;;;;13.81;75.44;99993.75;5036711;28;20504;-74
2023/04/26 01:35:10;;;;;;;7.63;3.42;;;;;;;13.81;75.51;99994.63;5036380;28;20029;-74
2023/04/26 01:37:36;;;;;;;6.88;3.80;;;;;;;13.81;75.72;99991.09;5036427;28;20033;-74
2023/04/26 01:40:05;;;;;;;8.50;4.20;;;;;;;13.82;75.36;99992.84;5042191;28;20614;-74
2023/04/26 01:42:30;;;;;;;7.82;3.83;;;;;;;13.81;75.46;99991.09;5038278;28;20026;-74
2023/04/26 01:44:56;;;;;;;7.47;3.67;;;;;;;13.81;75.43;99980.50;5038818;28;20032;-74
2023/04/26 01:47:21;;;;;;;7.87;3.67;;;;;;;13.82;75.57;99982.25;5040502;28;20032;-74
2023/04/26 01:49:46;;;;;;;9.07;4.13;;;;;;;13.81;75.37;99977.84;5040100;28;20679;-74
2023/04/26 01:52:12;;;;;;;8.37;3.50;;;;;;;13.78;75.44;99976.16;5038993;28;20465;-75
2023/04/26 01:54:37;;;;;;;9.10;4.40;;;;;;;13.77;75.54;99980.56;5040284;28;20057;-74
2023/04/26 01:57:03;;;;;;;8.97;4.47;;;;;;;13.76;75.49;99978.84;5039915;28;20101;-74
2023/04/26 01:59:29;;;;;;;8.32;3.97;;;;;;;13.72;75.68;99971.88;5052649;28;20021;-74
2023/04/26 02:01:54;;;;;;;9.70;3.67;;;;;;;13.71;75.95;99972.78;5028277;28;20033;-74
2023/04/26 02:04:19;;;;;;;9.97;3.60;;;;;;;13.71;75.84;99975.44;5039934;28;20045;-74
2023/04/26 02:06:45;;;;;;;6.37;3.37;;;;;;;13.72;75.84;99969.22;5039757;28;20360;-74
2023/04/26 02:09:10;;;;;;;5.60;3.00;;;;;;;13.71;75.88;99962.19;5046941;28;20040;-74
2023/04/26 02:11:35;;;;;;;7.67;3.60;;;;;;;13.71;75.82;99963.94;5053576;28;20079;-74
2023/04/26 02:14:01;;;;;;;6.83;3.00;;;;;;;13.72;75.76;99961.28;5039865;28;20450;-74
2023/04/26 02:16:27;;;;;;;7.10;3.30;;;;;;;13.72;75.81;99968.34;5039633;28;20025;-74
2023/04/26 02:18:53;;;;;;;6.83;3.00;;;;;;;13.72;75.75;99961.28;5040107;28;20631;-75
2023/04/26 02:21:20;;;;;;;8.10;3.28;;;;;;;13.71;75.71;99969.25;5064950;28;20040;-74
2023/04/26 02:23:45;;;;;;;8.15;3.45;;;;;;;13.68;75.82;99970.19;5039682;28;20037;-74
2023/04/26 02:26:11;;;;;;;7.20;3.60;;;;;;;13.63;76.10;99967.66;5021454;28;20022;-74
2023/04/26 02:28:37;;;;;;;8.55;3.22;;;;;;;13.63;76.14;99969.44;5044499;28;20032;-75
2023/04/26 02:31:03;;;;;;;7.47;3.47;;;;;;;13.63;76.23;99966.78;5040306;28;20131;-74
2023/04/26 02:33:28;;;;;;;6.75;3.90;;;;;;;13.62;76.44;99962.38;5039469;28;20025;-74
2023/04/26 02:35:54;;;;;;;8.50;3.53;;;;;;;13.59;76.37;99965.97;5039318;28;20036;-74
2023/04/26 02:38:19;;;;;;;9.67;4.00;;;;;;;13.57;76.37;99962.50;5039395;28;20021;-74
2023/04/26 02:40:45;;;;;;;9.27;4.20;;;;;;;13.58;76.69;99963.34;5045171;28;20064;-74
2023/04/26 02:43:10;;;;;;;10.97;4.77;;;;;;;13.55;76.90;99952.84;5039359;28;20040;-74
2023/04/26 02:45:42;;;;;;;9.10;4.00;;;;;;;13.51;77.34;99961.75;5039020;28;20145;-74
2023/04/26 02:48:08;;;;;;;8.65;3.85;;;;;;;13.49;77.28;99956.47;5039296;28;20021;-74
2023/04/26 02:50:33;;;;;;;7.20;3.80;;;;;;;13.50;76.97;99945.00;5039047;28;20060;-74
2023/04/26 02:52:58;;;;;;;7.07;3.97;;;;;;;13.53;77.04;99950.25;5021105;28;20112;-74
2023/04/26 02:55:24;;;;;;;8.23;3.80;;;;;;;13.55;77.02;99958.13;5038809;28;20029;-74
2023/04/26 02:57:49;;;;;;;7.77;4.00;;;;;;;13.54;77.11;99949.34;5030252;28;20029;-75
2023/04/26 03:00:15;;;;;;;7.83;3.97;;;;;;;13.55;77.15;99952.84;5034870;28;20036;-74
2023/04/26 03:02:41;;;;;;;8.43;3.80;;;;;;;13.56;77.21;99954.56;5038994;28;20318;-74
2023/04/26 03:05:08;;;;;;;8.63;3.70;;;;;;;13.58;77.03;99947.47;5020825;28;20129;-74
2023/04/26 03:07:33;;;;;;;8.15;3.90;;;;;;;13.57;77.11;99946.63;5038888;28;20076;-74
2023/04/26 03:09:59;;;;;;;10.27;4.07;;;;;;;13.58;77.23;99952.75;5052282;28;20116;-74
2023/04/26 03:12:25;;;;;;;9.57;4.00;;;;;;;13.55;77.40;99952.84;5045845;28;20060;-74
2023/04/26 03:14:50;;;;;;;10.93;4.63;;;;;;;13.53;77.56;99944.06;5038712;28;20029;-74
2023/04/26 03:17:15;;;;;;;7.53;4.35;;;;;;;13.51;77.70;99944.13;5037737;28;20029;-74
2023/04/26 03:19:41;;;;;;;9.07;4.00;;;;;;;13.51;77.75;99948.53;5048098;28;20035;-74
2023/04/26 03:22:06;;;;;;;12.00;4.53;;;;;;;13.51;77.79;99946.75;5053703;28;20060;-74
2023/04/26 03:24:31;;;;;;;11.90;5.10;;;;;;;13.52;77.85;99947.63;5038313;28;20036;-74
2023/04/26 03:26:57;;;;;;;9.70;4.50;;;;;;;13.48;78.05;99937.09;5024668;28;20469;-74
2023/04/26 03:29:22;;;;;;;10.75;4.50;;;;;;;13.47;77.78;99939.78;5021712;28;20028;-74
2023/04/26 03:31:48;;;;;;;9.87;4.60;;;;;;;13.46;78.01;99938.91;5039320;28;20108;-74
2023/04/26 03:34:13;;;;;;;12.43;4.83;;;;;;;13.48;78.06;99937.09;5037094;28;20464;-74
2023/04/26 03:36:38;;;;;;;10.73;4.47;;;;;;;13.52;77.73;99934.38;5038370;28;20025;-74
2023/04/26 03:39:07;;;;;;;10.13;4.67;;;;;;;13.55;77.78;99942.25;5038185;28;20082;-73
2023/04/26 03:41:34;;;;;;;10.90;5.50;;;;;;;13.55;77.75;99932.56;5026887;28;20036;-74
2023/04/26 03:43:59;;;;;;;12.95;5.50;;;;;;;13.53;77.91;99928.19;5038316;28;20473;-74
2023/04/26 03:46:25;;;;;;;12.60;5.37;;;;;;;13.54;78.50;99935.22;5037949;28;20045;-74
2023/04/26 03:48:50;;;;;;;11.18;5.88;;;;;;;13.52;78.02;99927.34;5037907;28;20040;-74
2023/04/26 03:51:16;;;;;;;13.57;5.73;;;;;;;13.50;78.15;99926.47;5038169;28;20033;-74
2023/04/26 03:53:41;;;;;;;10.83;5.53;;;;;;;13.53;78.27;99928.19;5044148;28;20029;-74
2023/04/26 03:56:07;;;;;;;12.17;5.30;;;;;;;13.55;78.22;99926.38;5057654;28;20499;-74
2023/04/26 03:58:32;;;;;;;12.55;5.63;;;;;;;13.57;78.22;99933.41;5057652;28;20393;-74
2023/04/26 04:00:58;;;;;;;12.57;5.97;;;;;;;13.59;78.21;99933.34;5028037;28;20034;-74
2023/04/26 04:03:23;;;;;;;13.27;6.37;;;;;;;13.59;78.08;99925.41;5037895;28;20033;-74
2023/04/26 04:05:49;;;;;;;11.75;5.43;;;;;;;13.59;78.02;99928.06;5036773;28;20045;-74
2023/04/26 04:08:14;;;;;;;13.00;5.50;;;;;;;13.62;78.11;99927.97;5036821;28;20117;-74
2023/04/26 04:10:41;;;;;;;11.83;5.80;;;;;;;13.65;77.79;99927.94;5056555;28;20039;-74
2023/04/26 04:13:07;;;;;;;10.40;6.15;;;;;;;13.68;78.22;99930.50;5039212;28;20108;-74
2023/04/26 04:15:32;;;;;;;11.45;5.63;;;;;;;13.70;77.99;99931.34;5037598;28;20115;-74
2023/04/26 04:17:57;;;;;;;11.10;5.87;;;;;;;13.71;77.96;99929.56;5037704;28;20503;-74
2023/04/26 04:20:23;;;;;;;11.87;6.27;;;;;;;13.71;78.11;99933.09;5058567;28;20036;-74
2023/04/26 04:22:48;;;;;;;11.57;6.20;;;;;;;13.71;78.13;99927.78;5040142;28;20029;-75
2023/04/26 04:25:15;;;;;;;10.77;5.57;;;;;;;13.73;78.05;99930.38;5037476;28;20037;-74
2023/04/26 04:27:42;;;;;;;10.80;5.60;;;;;;;13.74;77.93;99938.31;5023918;28;20036;-74
2023/04/26 04:30:08;;;;;;;11.07;5.20;;;;;;;13.76;77.84;99925.91;5049250;28;20053;-74
2023/04/26 04:32:34;;;;;;;9.00;5.13;;;;;;;13.81;77.82;99927.56;5037789;28;20057;-74
2023/04/26 04:35:00;;;;;;;9.50;5.10;;;;;;;13.83;77.94;99931.06;5037388;28;20037;-74
2023/04/26 04:37:25;;;;;;;11.40;5.30;;;;;;;13.83;77.99;99928.41;5037324;28;20034;-74
2023/04/26 04:39:52;;;;;;;9.77;5.43;;;;;;;13.81;77.79;99923.16;5041847;28;20025;-75
2023/04/26 04:42:17;;;;;;;10.18;5.70;;;;;;;13.82;77.81;99918.72;5037528;28;20409;-74
2023/04/26 04:44:44;;;;;;;11.27;5.72;;;;;;;13.85;77.92;99926.59;5035854;28;20029;-74
2023/04/26 04:47:10;;;;;;;11.50;6.00;;;;;;;13.86;77.80;99925.69;5035745;28;20025;-74
2023/04/26 04:49:36;;;;;;;10.60;5.47;;;;;;;13.85;78.10;99927.47;5040584;28;20924;-74
2023/04/26 04:52:01;;;;;;;11.80;5.40;;;;;;;13.85;78.07;99931.88;5057174;28;20055;-74
2023/04/26 04:54:27;;;;;;;15.07;6.27;;;;;;;13.85;78.08;99935.41;5057022;28;20032;-73
2023/04/26 04:56:52;;;;;;;11.17;5.80;;;;;;;13.86;77.98;99934.50;5056951;28;20048;-74
2023/04/26 04:59:17;;;;;;;13.83;6.07;;;;;;;13.87;78.15;99944.19;5055871;28;20036;-74
2023/04/26 05:01:43;;;;;;;12.25;5.85;;;;;;;13.89;78.29;99942.38;5037625;28;20057;-74
2023/04/26 05:04:08;;;;;;;13.97;6.77;;;;;;;13.88;78.20;99939.78;5036855;28;20056;-74
2023/04/26 05:06:34;;;;;;;13.07;5.83;;;;;;;13.88;78.03;99947.72;5035424;28;20060;-74
2023/04/26 05:09:00;;;;;;;11.30;6.47;;;;;;;13.88;78.27;99945.94;5042381;28;20031;-74
2023/04/26 05:11:26;;;;;;;12.43;6.32;;;;;;;13.89;78.39;99941.53;5051852;28;20025;-74
2023/04/26 05:13:51;;;;;;;13.20;6.43;;;;;;;13.89;78.44;99947.66;5061393;28;20074;-74
2023/04/26 05:16:17;;;;;;;13.40;6.13;;;;;;;13.89;78.17;99952.97;5065727;28;20021;-74
2023/04/26 05:18:42;;;;;;;11.03;6.17;;;;;;;13.90;78.24;99943.25;5045113;28;20066;-74
2023/04/26 05:21:07;;;;;;;11.20;5.70;;;;;;;13.90;78.26;99944.13;5045389;28;20036;-74
2023/04/26 05:23:33;;;;;;;10.43;5.80;;;;;;;13.93;78.28;99948.47;5047764;28;20028;-74
2023/04/26 05:26:05;;;;;;;11.40;5.20;;;;;;;13.95;77.89;99945.78;5056104;28;20085;-74
2023/04/26 05:28:31;;;;;;;11.70;5.50;;;;;;;13.97;78.27;99954.56;5044493;28;20105;-74
2023/04/26 05:30:58;;;;;;;10.30;5.90;;;;;;;13.98;78.35;99954.53;5027398;28;20049;-75
2023/04/26 05:33:23;;;;;;;14.32;5.38;;;;;;;14.00;78.39;99963.31;5041852;28;20029;-75
2023/04/26 05:35:48;;;;;;;13.03;5.90;;;;;;;14.02;78.16;99958.84;5040588;28;20033;-75
2023/04/26 05:38:14;;;;;;;12.00;5.83;;;;;;;14.03;78.13;99963.22;5042543;28;20033;-74
2023/04/26 05:40:40;;;;;;;9.43;4.93;;;;;;;14.02;78.31;99961.50;5036386;28;20256;-75
2023/04/26 05:43:05;;;;;;;11.83;5.80;;;;;;;14.02;78.37;99969.44;5046155;28;20028;-73
2023/04/26 05:45:31;;;;;;;13.77;5.72;;;;;;;14.04;78.17;99966.75;5022916;28;20509;-73
2023/04/26 05:47:56;;;;;;;15.97;5.30;;;;;;;14.04;78.20;99972.91;5056493;28;20118;-73
2023/04/26 05:50:21;;;;;;;10.20;5.10;;;;;;;14.06;78.20;99975.53;5056237;28;20100;-72
2023/04/26 05:52:47;;;;;;;9.47;5.30;;;;;;;14.06;78.21;99973.75;5056646;28;20029;-73
2023/04/26 05:55:12;;;;;;;12.90;5.47;;;;;;;14.09;78.13;99974.56;5056357;28;20071;-73
2023/04/26 05:57:38;;;;;;;10.53;5.60;;;;;;;14.08;78.25;99979.03;5056381;28;20264;-74
2023/04/26 06:00:05;;;;;;;13.60;6.03;;;;;;;14.09;78.35;99979.88;5033884;28;20030;-72
2023/04/26 06:02:30;;;;;;;11.85;5.53;;;;;;;14.07;78.74;99983.44;5047524;28;20116;-73
2023/04/26 06:04:56;;;;;;;11.43;6.22;;;;;;;14.10;78.29;99981.63;5048308;28;20088;-72
2023/04/26 06:07:21;;;;;;;11.13;5.80;;;;;;;14.12;78.69;99985.13;5018730;28;20045;-72
2023/04/26 06:09:47;;;;;;;13.30;5.93;;;;;;;14.16;78.46;99987.66;5047988;28;20104;-73
2023/04/26 06:12:12;;;;;;;17.00;6.20;;;;;;;14.19;78.45;99992.00;5045199;28;20087;-72
2023/04/26 06:14:38;;;;;;;13.03;6.10;;;;;;;14.20;78.49;99991.97;5047912;28;20120;-72
2023/04/26 06:17:03;;;;;;;11.50;6.13;;;;;;;14.24;78.34;99995.41;5018293;28;20417;-72
2023/04/26 06:19:29;;;;;;;15.17;6.67;;;;;;;14.26;78.48;99993.59;5042042;28;20518;-72
2023/04/26 06:21:55;;;;;;;12.98;6.60;;;;;;;14.26;78.77;99988.31;5040969;28;20481;-72
2023/04/26 06:24:22;;;;;;;12.45;6.25;;;;;;;14.28;78.74;99997.06;5035791;28;20040;-72
2023/04/26 06:26:47;;;;;;;12.53;6.13;;;;;;;14.29;78.55;99996.16;5046756;28;20046;-72
2023/04/26 06:29:13;;;;;;;13.67;6.33;;;;;;;14.33;78.76;99995.19;5043009;28;20029;-72
2023/04/26 06:31:38;;;;;;;12.53;6.20;;;;;;;14.37;78.67;99989.84;5050145;28;20358;-72
2023/04/26 06:34:03;;;;;;;14.27;7.13;;;;;;;14.40;78.53;99995.06;5030461;28;20029;-72
2023/04/26 06:36:30;;;;;;;12.67;6.53;;;;;;;14.43;78.67;100000.28;5030867;28;20116;-72
2023/04/26 06:38:55;;;;;;;13.88;6.90;;;;;;;14.47;78.53;99997.53;5039574;28;20032;-72
2023/04/26 06:41:21;;;;;;;13.97;6.90;;;;;;;14.51;78.49;100003.59;5045169;28;20452;-72
2023/04/26 06:43:47;;;;;;;22.20;7.72;;;;;;;14.56;78.42;100001.69;5056616;28;20044;-73
2023/04/26 06:46:12;;;;;;;14.90;7.00;;;;;;;14.60;78.38;100000.75;5059467;28;20025;-72
2023/04/26 06:48:37;;;;;;;14.02;6.10;;;;;;;14.63;78.32;99999.78;5041175;28;20040;-73
2023/04/26 06:51:07;;;;;;;11.83;6.10;;;;;;;14.64;78.29;100005.06;5058846;28;20033;-72
2023/04/26 06:53:36;;;;;;;11.88;5.85;;;;;;;14.69;78.24;100001.41;5023317;28;20079;-72
2023/04/26 06:56:01;;;;;;;11.00;5.80;;;;;;;14.72;78.26;99996.06;5038278;28;20026;-72
2023/04/26 06:58:27;;;;;;;13.13;5.63;;;;;;;14.73;78.64;100000.44;5043046;28;20021;-72
2023/04/26 07:00:52;;;;;;;14.67;5.67;;;;;;;14.75;78.42;99990.69;5045491;28;20561;-72
2023/04/26 07:03:18;;;;;;;11.83;5.30;;;;;;;14.78;78.33;99995.88;5038864;28;20029;-72
2023/04/26 07:05:43;;;;;;;10.53;4.97;;;;;;;14.83;78.51;99994.00;5038846;28;20406;-72
2023/04/26 07:08:08;;;;;;;10.20;5.47;;;;;;;14.86;78.53;99991.28;5038945;28;20059;-72
2023/04/26 07:10:34;;;;;;;10.63;5.10;;;;;;;14.90;78.64;99987.63;5045715;28;20041;-72
2023/04/26 07:12:59;;;;;;;13.03;4.67;;;;;;;14.94;78.51;99988.41;5047142;28;20477;-72
2023/04/26 07:15:25;;;;;;;11.10;4.93;;;;;;;14.99;78.49;99993.59;5023552;28;20100;-74
2023/04/26 07:17:50;;;;;;;12.53;5.27;;;;;;;15.04;78.28;99989.03;5045128;28;20053;-74
2023/04/26 07:20:19;;;;;;;12.50;5.17;;;;;;;15.09;78.45;99989.81;5052829;28;20068;-74
2023/04/26 07:22:45;;;;;;;10.48;4.63;;;;;;;15.15;78.53;99994.94;5031794;28;20388;-74
2023/04/26 07:25:10;;;;;;;11.65;5.22;;;;;;;15.23;78.72;99993.84;5047716;28;20030;-74
2023/04/26 07:27:36;;;;;;;10.80;4.90;;;;;;;15.25;78.55;99994.66;5042860;28;20040;-74
2023/04/26 07:30:02;;;;;;;10.90;4.13;;;;;;;15.27;78.66;99984.88;5038731;28;20033;-74
2023/04/26 07:32:27;;;;;;;8.13;4.22;;;;;;;15.33;78.45;99993.53;5042674;28;20509;-74
2023/04/26 07:34:53;;;;;;;9.43;3.87;;;;;;;15.40;78.33;99986.28;5038353;28;20029;-74
2023/04/26 07:37:18;;;;;;;8.37;4.17;;;;;;;15.49;78.20;99982.50;5038261;28;20032;-74
2023/04/26 07:39:44;;;;;;;8.07;3.67;;;;;;;15.55;78.12;99986.72;5052656;28;20032;-74
2023/04/26 07:42:09;;;;;;;8.38;3.25;;;;;;;15.62;78.23;99993.63;5040764;28;20129;-74
2023/04/26 07:44:34;;;;;;;6.17;2.20;;;;;;;15.66;78.12;99989.97;5036738;28;20397;-75
2023/04/26 07:47:00;;;;;;;6.37;2.47;;;;;;;15.72;78.25;99988.91;5030972;28;20057;-74
2023/04/26 07:49:25;;;;;;;6.13;2.50;;;;;;;15.76;78.20;99990.56;5037514;28;20026;-74
2023/04/26 07:51:51;;;;;;;5.43;2.17;;;;;;;15.81;78.18;99987.78;5036812;28;20176;-74
2023/04/26 07:54:16;;;;;;;5.60;2.20;;;;;;;15.87;77.97;100000.84;5038350;28;20033;-74
2023/04/26 07:56:42;;;;;;;6.40;2.10;;;;;;;15.92;77.72;99993.63;5037540;28;20033;-74
2023/04/26 07:59:07;;;;;;;6.20;2.00;;;;;;;15.93;78.07;99993.59;5047583;28;20108;-74
2023/04/26 08:01:33;;;;;;;4.43;1.60;;;;;;;15.98;77.94;99988.13;5048584;28;20394;-74
2023/04/26 08:03:58;;;;;;;5.70;1.77;;;;;;;16.06;77.86;99994.09;5038011;28;20056;-75
2023/04/26 08:06:24;;;;;;;5.65;2.03;;;;;;;16.17;77.90;99990.22;5036127;28;20068;-74
2023/04/26 08:08:49;;;;;;;4.00;1.60;;;;;;;16.28;77.48;99988.09;5041388;28;20031;-74
2023/04/26 08:11:15;;;;;;;6.13;1.70;;;;;;;16.36;77.25;99990.47;5041177;28;20036;-74
2023/04/26 08:13:42;;;;;;;6.10;2.20;;;;;;;16.43;77.35;99986.72;5037584;28;20017;-74
2023/04/26 08:16:08;;;;;;;5.15;1.88;;;;;;;16.53;77.12;99987.31;5037546;28;20030;-74
2023/04/26 08:18:34;;;;;;;5.27;1.83;;;;;;;16.58;77.01;99990.66;5035701;28;20033;-74
2023/04/26 08:20:59;;;;;;;4.60;1.67;;;;;;;16.57;77.04;99991.59;5053303;28;20033;-74
2023/04/26 08:23:25;;;;;;;5.53;1.60;;;;;;;16.57;77.10;99994.25;5037650;28;20033;-74
2023/04/26 08:25:50;;;;;;;4.17;1.70;;;;;;;16.59;76.78;99992.41;5037125;28;20037;-74
2023/04/26 08:28:16;;;;;;;5.07;1.50;;;;;;;16.58;76.82;99989.78;5037480;28;20338;-74
2023/04/26 08:30:42;;;;;;;7.53;1.40;;;;;;;16.60;76.74;99987.94;5021928;28;20049;-74
2023/04/26 08:33:10;;;;;;;5.10;1.40;;;;;;;16.60;76.83;99988.81;5023826;28;20036;-74
2023/04/26 08:35:36;;;;;;;4.00;1.40;;;;;;;16.63;76.78;99985.16;5049046;28;20033;-75
2023/04/26 08:38:01;;;;;;;5.17;1.40;;;;;;;16.67;77.08;99984.19;5038962;28;20096;-75
2023/04/26 08:40:27;;;;;;;4.63;1.83;;;;;;;16.72;76.80;99984.88;5053155;28;20036;-74
2023/04/26 08:42:52;;;;;;;4.68;1.17;;;;;;;16.76;76.80;99980.34;5037414;28;20060;-74
2023/04/26 08:45:20;;;;;;;3.37;1.30;;;;;;;16.77;76.47;99992.72;5036820;28;20038;-75
2023/04/26 08:47:57;;;;;;;4.20;1.60;;;;;;;16.74;76.47;99995.44;5037079;28;20099;-75
2023/04/26 08:50:23;;;;;;;3.97;1.60;;;;;;;16.78;76.66;99982.00;5036629;28;20462;-74
2023/04/26 08:52:50;;;;;;;6.10;1.40;;;;;;;16.80;76.66;99987.28;5025514;28;20108;-74
2023/04/26 08:55:18;;;;;;;4.68;1.73;;;;;;;16.83;76.36;99991.59;5028397;28;20017;-75
2023/04/26 08:57:48;;;;;;;5.32;1.70;;;;;;;16.86;76.40;99989.72;5018903;28;20245;-74
2023/04/26 09:00:16;;;;;;;4.43;1.30;;;;;;;16.92;76.39;99985.97;5048543;28;20057;-74
2023/04/26 09:02:45;;;;;;;3.60;1.30;;;;;;;16.97;76.27;99992.00;5036885;28;20060;-74
2023/04/26 09:05:11;;;;;;;5.07;1.50;;;;;;;17.00;76.34;99993.69;5036568;28;20046;-74
2023/04/26 09:07:47;;;;;;;3.85;1.50;;;;;;;16.98;75.86;100003.50;5035358;28;20029;-74
2023/04/26 09:10:16;;;;;;;4.05;1.42;;;;;;;16.97;76.03;99996.44;5044260;28;20040;-74
2023/04/26 09:12:42;;;;;;;5.60;1.30;;;;;;;16.96;76.09;100003.56;5040999;28;20041;-74
2023/04/26 09:15:08;;;;;;;4.78;1.58;;;;;;;16.96;76.18;100000.03;5042174;28;20026;-74
2023/04/26 09:17:40;;;;;;;4.00;1.47;;;;;;;16.94;75.88;100000.94;5036094;28;20063;-73
2023/04/26 09:20:28;;;;;;;5.55;1.60;;;;;;;16.86;75.85;99999.47;5052572;28;20078;-73
2023/04/26 09:23:05;;;;;;;4.63;1.50;;;;;;;16.88;76.14;100006.50;5018990;28;20540;-74
2023/04/26 09:25:31;;;;;;;3.90;1.30;;;;;;;16.91;76.20;100009.03;5049893;28;20025;-74
2023/04/26 09:27:57;;;;;;;4.97;1.20;;;;;;;16.91;76.25;100013.50;5049835;28;20042;-74
2023/04/26 09:30:23;;;;;;;5.20;1.30;;;;;;;16.92;76.10;100010.78;5019582;28;20021;-74
2023/04/26 09:33:04;;;;;;;3.17;1.10;;;;;;;16.92;76.23;100010.78;5056206;28;20037;-74
2023/04/26 09:35:31;;;;;;;3.67;1.08;;;;;;;16.93;76.03;100007.19;5056672;28;20581;-74
2023/04/26 09:38:11;;;;;;;3.60;1.07;;;;;;;16.92;75.86;100010.78;5038338;28;20064;-74
2023/04/26 09:40:40;;;;;;;4.55;1.30;;;;;;;16.93;75.77;100012.50;5050715;28;20116;-74
2023/04/26 09:43:12;;;;;;;5.07;1.60;;;;;;;16.94;76.16;100010.72;5036782;28;20033;-74
2023/04/26 09:45:51;;;;;;;3.83;1.10;;;;;;;16.96;76.20;100011.56;5036191;28;20025;-74
2023/04/26 09:48:24;;;;;;;4.63;1.30;;;;;;;17.00;76.39;100018.53;5036243;28;20421;-74
2023/04/26 09:50:54;;;;;;;5.00;1.43;;;;;;;17.00;76.26;100017.63;5036207;28;20021;-74
2023/04/26 09:53:33;;;;;;;5.10;1.50;;;;;;;16.96;76.51;100024.84;5036421;28;20547;-74
2023/04/26 09:56:12;;;;;;;5.35;2.10;;;;;;;16.98;76.15;100022.13;5036109;28;20022;-74
2023/04/26 09:58:59;;;;;;;6.68;1.63;;;;;;;16.99;76.63;100023.88;5046752;28;20021;-74
2023/04/26 10:01:30;;;;;;;5.22;1.65;;;;;;;17.07;76.51;100019.19;5039217;28;20063;-74
2023/04/26 10:03:56;;;;;;;5.03;1.70;;;;;;;17.13;76.38;100023.44;5037292;28;20397;-74
2023/04/26 10:06:23;;;;;;;4.25;1.67;;;;;;;17.15;76.32;100022.44;5039900;28;20099;-74
2023/04/26 10:08:48;;;;;;;6.70;2.10;;;;;;;17.18;76.39;100017.00;5043671;28;20021;-74
2023/04/26 10:11:14;;;;;;;6.30;1.80;;;;;;;17.21;75.94;100016.88;5043474;28;20078;-74
2023/04/26 10:13:40;;;;;;;5.88;1.77;;;;;;;17.27;76.00;100010.50;5040305;28;20029;-74
2023/04/26 10:16:06;;;;;;;6.03;1.80;;;;;;;17.35;76.06;100003.09;5021951;28;20025;-74
2023/04/26 10:18:32;;;;;;;4.87;1.97;;;;;;;17.46;75.96;100005.34;5039487;28;20022;-74
2023/04/26 10:21:02;;;;;;;6.60;1.52;;;;;;;17.59;75.74;99994.25;5047197;28;20040;-74
2023/04/26 10:23:28;;;;;;;4.93;1.50;;;;;;;17.72;75.41;99992.84;5039830;28;20030;-74
2023/04/26 10:25:54;;;;;;;6.13;1.50;;;;;;;17.91;75.12;99990.38;5039514;28;20577;-74
2023/04/26 10:28:38;;;;;;;4.60;1.67;;;;;;;18.04;74.28;99985.44;5044678;28;20037;-74
2023/04/26 10:31:05;;;;;;;4.60;1.47;;;;;;;18.20;74.25;99988.38;5050662;28;20030;-74
2023/04/26 10:33:31;;;;;;;4.30;1.38;;;;;;;18.24;74.28;99997.13;5039768;28;20029;-74
2023/04/26 10:36:02;;;;;;;4.20;1.10;;;;;;;18.21;74.04;99989.25;5039457;28;20038;-74
2023/04/26 10:38:28;;;;;;;3.95;1.30;;;;;;;18.22;74.41;99980.31;5039831;28;20068;-74
2023/04/26 10:40:55;;;;;;;3.90;1.40;;;;;;;18.14;74.48;99975.28;5046847;28;20029;-73
2023/04/26 10:43:27;;;;;;;4.75;1.90;;;;;;;18.13;74.50;99972.69;5049536;28;20029;-74
2023/04/26 10:45:55;;;;;;;4.87;1.60;;;;;;;18.18;74.67;99970.69;5039034;28;20034;-74
2023/04/26 10:48:29;;;;;;;4.10;1.25;;;;;;;18.21;74.51;99976.78;5051093;28;20529;-74
2023/04/26 10:51:00;;;;;;;4.30;1.52;;;;;;;18.21;74.44;99978.59;5026271;28;20474;-73
2023/04/26 10:53:44;;;;;;;4.57;1.45;;;;;;;18.23;74.56;99971.41;5046937;28;20064;-74
2023/04/26 10:56:10;;;;;;;3.80;1.23;;;;;;;18.34;74.38;99976.28;5023664;28;20033;-74
2023/04/26 10:58:40;;;;;;;4.37;1.30;;;;;;;18.38;74.21;99974.34;5056037;28;20024;-74
2023/04/26 11:01:07;;;;;;;4.03;1.30;;;;;;;18.42;74.41;99963.50;5044634;28;20089;-74
2023/04/26 11:03:33;;;;;;;4.80;1.30;;;;;;;18.45;74.64;99968.69;5045320;28;20041;-75
2023/04/26 11:05:58;;;;;;;3.80;1.50;;;;;;;18.51;74.54;99967.59;5039023;28;20034;-74
2023/04/26 11:08:35;;;;;;;5.03;1.45;;;;;;;18.53;74.65;99955.06;5039096;28;20033;-74
2023/04/26 11:11:03;;;;;;;2.50;0.82;;;;;;;18.60;73.89;99953.84;5044048;28;20143;-74
2023/04/26 11:13:34;;;;;;;3.50;1.10;;;;;;;18.68;74.32;99949.97;5042900;28;20086;-74
2023/04/26 11:16:04;;;;;;;3.33;1.20;;;;;;;18.80;74.21;99954.81;5045306;28;20028;-74
2023/04/26 11:18:35;;;;;;;4.05;1.15;;;;;;;18.86;73.42;99959.00;5042798;28;20091;-74
2023/04/26 11:21:01;;;;;;;3.60;1.00;;;;;;;18.86;73.59;99962.53;5063611;28;20112;-74
2023/04/26 11:23:28;;;;;;;4.67;1.10;;;;;;;18.86;73.47;99961.69;5042348;28;20056;-74
2023/04/26 11:26:01;;;;;;;3.67;1.08;;;;;;;18.91;73.64;99959.66;5058260;28;20040;-74